createdAt,value
2023-09-28T00:02:01.364Z,53.55
2023-09-28T00:04:47.021Z,53.80
2023-09-28T00:07:32.280Z,54.29
2023-09-28T00:10:17.396Z,53.73
2023-09-28T00:13:02.753Z,52.83
2023-09-28T00:15:48.263Z,53.15
2023-09-28T00:18:34.026Z,53.53
2023-09-28T00:21:19.350Z,53.65
2023-09-28T00:24:04.849Z,53.59
2023-09-28T00:26:50.395Z,54.67
2023-09-28T00:29:35.920Z,54.22
2023-09-28T00:32:21.579Z,54.08
2023-09-28T00:35:07.081Z,54.34
2023-09-28T00:37:55.121Z,54.59
2023-09-28T00:40:40.695Z,54.39
2023-09-28T00:43:29.340Z,54.02
2023-09-28T00:46:14.938Z,53.67
2023-09-28T00:49:00.521Z,54.16
2023-09-28T00:51:45.882Z,55.17
2023-09-28T00:54:30.878Z,55.11
2023-09-28T00:57:15.857Z,54.49
2023-09-28T01:00:00.764Z,54.24
2023-09-28T01:02:45.669Z,53.79
2023-09-28T01:05:31.291Z,53.98
2023-09-28T01:08:16.787Z,54.32
2023-09-28T01:11:02.385Z,54.75
2023-09-28T01:13:48.087Z,55.72
2023-09-28T01:16:33.558Z,55.27
2023-09-28T01:19:18.991Z,54.68
2023-09-28T01:22:04.678Z,55.50
2023-09-28T01:24:50.179Z,55.47
2023-09-28T01:27:35.301Z,54.83
2023-09-28T01:30:20.728Z,54.18
2023-09-28T01:33:05.696Z,54.60
2023-09-28T01:35:51.215Z,54.15
2023-09-28T01:38:42.730Z,54.66
2023-09-28T01:41:28.252Z,55.27
2023-09-28T01:44:13.458Z,54.75
2023-09-28T01:46:58.847Z,55.16
2023-09-28T01:49:44.451Z,55.81
2023-09-28T01:52:30.049Z,55.94
2023-09-28T01:55:15.454Z,55.43
2023-09-28T01:58:00.601Z,54.91
2023-09-28T02:00:46.049Z,55.38
2023-09-28T02:03:31.528Z,55.18
2023-09-28T02:06:19.024Z,54.70
2023-09-28T02:09:06.518Z,54.38
2023-09-28T02:11:51.975Z,54.96
2023-09-28T02:14:37.154Z,55.01
2023-09-28T02:17:22.710Z,55.18
2023-09-28T02:20:08.244Z,54.92
2023-09-28T02:22:54.194Z,54.94
2023-09-28T02:25:39.892Z,55.51
2023-09-28T02:28:31.077Z,54.67
2023-09-28T02:31:16.456Z,54.05
2023-09-28T02:34:01.861Z,54.28
2023-09-28T02:36:46.886Z,54.55
2023-09-28T02:39:34.089Z,54.66
2023-09-28T02:42:21.061Z,54.37
2023-09-28T02:45:06.396Z,54.58
2023-09-28T02:47:51.379Z,54.55
2023-09-28T02:50:36.893Z,55.15
2023-09-28T02:53:21.755Z,55.18
2023-09-28T02:56:07.336Z,54.32
2023-09-28T02:58:52.831Z,55.33
2023-09-28T03:01:38.379Z,54.82
2023-09-28T03:04:23.834Z,54.61
2023-09-28T03:07:09.299Z,54.69
2023-09-28T03:09:54.380Z,54.34
2023-09-28T03:12:41.517Z,55.18
2023-09-28T03:15:26.519Z,54.48
2023-09-28T03:18:11.572Z,54.17
2023-09-28T03:20:58.774Z,54.51
2023-09-28T03:23:44.264Z,54.00
2023-09-28T03:26:31.909Z,54.43
2023-09-28T03:29:17.519Z,54.85
2023-09-28T03:32:05.103Z,54.87
2023-09-28T03:34:52.549Z,55.43
2023-09-28T03:37:38.095Z,55.09
2023-09-28T03:40:23.071Z,54.66
2023-09-28T03:43:08.073Z,54.71
2023-09-28T03:45:57.356Z,55.15
2023-09-28T03:48:42.886Z,54.88
2023-09-28T03:51:30.351Z,55.06
2023-09-28T03:54:15.845Z,54.71
2023-09-28T03:57:05.181Z,56.00
2023-09-28T03:59:50.213Z,56.02
2023-09-28T04:02:35.837Z,55.16
2023-09-28T04:05:23.304Z,55.30
2023-09-28T04:08:08.648Z,54.77
2023-09-28T04:10:54.009Z,55.34
2023-09-28T04:13:39.394Z,54.96
2023-09-28T04:16:25.149Z,54.80
2023-09-28T04:19:10.612Z,55.47
2023-09-28T04:21:55.665Z,55.23
2023-09-28T04:24:45.005Z,54.30
2023-09-28T04:27:32.758Z,54.37
2023-09-28T04:30:22.656Z,54.55
2023-09-28T04:33:08.608Z,54.26
2023-09-28T04:35:54.167Z,54.91
2023-09-28T04:38:39.277Z,54.75
2023-09-28T04:41:24.275Z,54.19
2023-09-28T04:44:09.906Z,54.52
2023-09-28T04:46:55.522Z,55.46
2023-09-28T04:49:40.856Z,54.80
2023-09-28T04:52:28.533Z,54.97
2023-09-28T04:55:16.040Z,54.90
2023-09-28T04:58:03.578Z,54.30
2023-09-28T05:00:49.187Z,54.40
2023-09-28T05:03:38.588Z,55.10
2023-09-28T05:06:26.037Z,53.99
2023-09-28T05:09:11.317Z,54.03
2023-09-28T05:11:56.238Z,53.52
2023-09-28T05:14:41.238Z,54.47
2023-09-28T05:17:26.765Z,55.16
2023-09-28T05:20:12.330Z,55.49
2023-09-28T05:22:57.833Z,55.42
2023-09-28T05:25:47.373Z,55.78
2023-09-28T05:28:32.755Z,56.45
2023-09-28T05:31:21.337Z,56.47
2023-09-28T05:34:09.101Z,58.79
2023-09-28T05:37:00.796Z,57.43
2023-09-28T05:39:46.158Z,56.38
2023-09-28T05:42:31.736Z,57.16
2023-09-28T05:45:16.747Z,57.73
2023-09-28T05:48:02.210Z,57.38
2023-09-28T05:50:49.578Z,58.39
2023-09-28T05:53:35.038Z,57.83
2023-09-28T05:56:20.782Z,56.50
2023-09-28T05:59:07.267Z,56.85
2023-09-28T06:01:54.529Z,56.27
2023-09-28T06:04:40.117Z,57.20
2023-09-28T06:07:25.079Z,56.69
2023-09-28T06:10:12.364Z,56.24
2023-09-28T06:12:57.435Z,56.40
2023-09-28T06:15:42.920Z,57.79
2023-09-28T06:18:28.411Z,56.67
2023-09-28T06:21:16.144Z,55.54
2023-09-28T06:24:01.683Z,55.07
2023-09-28T06:26:47.257Z,55.00
2023-09-28T06:29:34.632Z,54.62
2023-09-28T06:32:20.107Z,55.22
2023-09-28T06:35:05.555Z,55.67
2023-09-28T06:37:52.831Z,56.27
2023-09-28T06:40:38.387Z,54.50
2023-09-28T06:43:27.984Z,55.70
2023-09-28T06:46:15.277Z,55.23
2023-09-28T06:49:00.891Z,55.13
2023-09-28T06:51:46.264Z,53.75
2023-09-28T06:54:35.830Z,53.63
2023-09-28T06:57:26.612Z,53.20
2023-09-28T07:00:11.854Z,53.55
2023-09-28T07:02:56.884Z,53.73
2023-09-28T07:05:44.270Z,54.83
2023-09-28T07:08:29.594Z,54.47
2023-09-28T07:11:16.914Z,54.20
2023-09-28T07:14:04.612Z,54.19
2023-09-28T07:16:51.246Z,53.49
2023-09-28T07:19:36.890Z,54.08
2023-09-28T07:22:22.249Z,53.70
2023-09-28T07:25:07.688Z,53.42
2023-09-28T07:27:52.716Z,53.70
2023-09-28T07:30:39.921Z,52.96
2023-09-28T07:33:25.101Z,53.37
2023-09-28T07:36:10.642Z,52.80
2023-09-28T07:38:58.250Z,53.01
2023-09-28T07:41:43.746Z,52.55
2023-09-28T07:44:30.324Z,52.85
2023-09-28T07:47:15.661Z,52.92
2023-09-28T07:50:01.358Z,53.33
2023-09-28T07:52:46.829Z,53.81
2023-09-28T07:55:34.184Z,53.24
2023-09-28T07:58:26.864Z,54.40
2023-09-28T08:01:12.463Z,54.77
2023-09-28T08:04:00.946Z,56.14
2023-09-28T08:06:46.529Z,55.91
2023-09-28T08:09:32.365Z,55.38
2023-09-28T08:12:17.752Z,54.80
2023-09-28T08:15:02.988Z,53.46
2023-09-28T08:17:48.313Z,53.95
2023-09-28T08:20:33.989Z,53.29
2023-09-28T08:23:19.358Z,53.04
2023-09-28T08:26:04.859Z,51.99
2023-09-28T08:28:52.584Z,54.49
2023-09-28T08:31:38.414Z,54.53
2023-09-28T08:34:36.802Z,55.50
2023-09-28T08:37:24.345Z,53.46
2023-09-28T08:40:10.080Z,52.02
2023-09-28T08:42:55.178Z,53.56
2023-09-28T08:45:41.008Z,55.35
2023-09-28T08:48:26.268Z,54.53
2023-09-28T08:51:11.967Z,53.91
2023-09-28T08:53:57.387Z,54.65
2023-09-28T08:56:42.926Z,55.70
2023-09-28T08:59:28.543Z,54.84
2023-09-28T09:02:14.079Z,53.95
2023-09-28T09:04:59.259Z,53.67
2023-09-28T09:07:44.746Z,55.13
2023-09-28T09:10:33.660Z,54.29
2023-09-28T09:13:22.074Z,54.58
2023-09-28T09:16:07.462Z,52.86
2023-09-28T09:18:53.344Z,53.06
2023-09-28T09:21:39.153Z,53.97
2023-09-28T09:24:24.566Z,53.66
2023-09-28T09:27:10.411Z,52.20
2023-09-28T09:29:55.896Z,51.11
2023-09-28T09:32:41.461Z,51.73
2023-09-28T09:35:26.984Z,51.12
2023-09-28T09:38:12.399Z,51.31
2023-09-28T09:40:57.978Z,51.84
2023-09-28T09:43:43.361Z,51.91
2023-09-28T09:46:28.884Z,52.87
2023-09-28T09:49:14.259Z,51.67
2023-09-28T09:51:59.931Z,50.32
2023-09-28T09:54:45.355Z,49.40
2023-09-28T09:57:30.436Z,49.97
2023-09-28T10:00:15.583Z,49.83
2023-09-28T10:03:03.630Z,48.86
2023-09-28T10:05:49.286Z,48.49
2023-09-28T10:08:34.647Z,48.32
2023-09-28T10:11:19.759Z,48.82
2023-09-28T10:14:05.250Z,48.92
2023-09-28T10:16:50.590Z,50.36
2023-09-28T10:19:36.121Z,49.57
2023-09-28T10:22:21.156Z,50.20
2023-09-28T10:25:06.698Z,50.06
2023-09-28T10:27:52.264Z,49.48
2023-09-28T10:30:37.663Z,49.03
2023-09-28T10:33:23.378Z,50.57
2023-09-28T10:36:08.782Z,50.20
2023-09-28T10:38:54.331Z,49.78
2023-09-28T10:41:39.863Z,50.31
2023-09-28T10:44:25.244Z,50.60
2023-09-28T10:47:10.890Z,50.67
2023-09-28T10:49:56.256Z,50.68
2023-09-28T10:52:41.862Z,50.71
2023-09-28T10:55:27.342Z,50.12
2023-09-28T10:58:12.833Z,49.70
2023-09-28T11:00:57.840Z,50.06
2023-09-28T11:03:43.013Z,50.23
2023-09-28T11:06:28.566Z,49.90
2023-09-28T11:09:13.858Z,49.56
2023-09-28T11:11:59.368Z,50.08
2023-09-28T11:14:44.970Z,51.27
2023-09-28T11:17:30.452Z,50.68
2023-09-28T11:20:15.979Z,49.75
2023-09-28T11:23:01.619Z,49.90
2023-09-28T11:25:47.048Z,51.02
2023-09-28T11:28:32.492Z,50.04
2023-09-28T11:31:17.977Z,49.79
2023-09-28T11:34:03.648Z,51.74
2023-09-28T11:36:48.967Z,50.24
2023-09-28T11:39:34.573Z,50.71
2023-09-28T11:42:20.189Z,50.35
2023-09-28T11:45:05.424Z,50.39
2023-09-28T11:47:52.836Z,49.54
2023-09-28T11:50:38.038Z,49.04
2023-09-28T11:53:23.565Z,49.63
2023-09-28T11:56:09.000Z,48.87
2023-09-28T11:58:54.397Z,49.17
2023-09-28T12:01:40.047Z,48.69
2023-09-28T12:04:28.385Z,48.57
2023-09-28T12:07:13.663Z,47.76
2023-09-28T12:10:04.519Z,48.40
2023-09-28T12:12:50.392Z,48.25
2023-09-28T12:15:35.941Z,48.19
2023-09-28T12:18:21.450Z,48.88
2023-09-28T12:21:06.882Z,48.76
2023-09-28T12:23:51.866Z,48.59
2023-09-28T12:26:37.641Z,47.64
2023-09-28T12:29:23.055Z,47.76
2023-09-28T12:32:08.726Z,48.62
2023-09-28T12:34:54.239Z,48.53
2023-09-28T12:37:39.705Z,48.39
2023-09-28T12:40:26.872Z,47.97
2023-09-28T12:43:11.940Z,48.94
2023-09-28T12:45:57.439Z,48.47
2023-09-28T12:48:42.866Z,49.12
2023-09-28T12:51:28.472Z,48.56
2023-09-28T12:54:14.030Z,47.88
2023-09-28T12:57:00.579Z,48.15
2023-09-28T12:59:45.931Z,48.24
2023-09-28T13:02:31.542Z,48.30
2023-09-28T13:05:17.186Z,47.05
2023-09-28T13:08:02.682Z,47.87
2023-09-28T13:10:48.124Z,47.26
2023-09-28T13:13:33.525Z,46.91
2023-09-28T13:16:18.948Z,47.18
2023-09-28T13:19:04.434Z,47.15
2023-09-28T13:21:49.549Z,47.16
2023-09-28T13:24:35.742Z,46.73
2023-09-28T13:27:21.449Z,46.60
2023-09-28T13:30:06.717Z,46.65
2023-09-28T13:32:51.777Z,46.98
2023-09-28T13:35:37.319Z,46.53
2023-09-28T13:38:22.719Z,46.76
2023-09-28T13:41:14.296Z,46.95
2023-09-28T13:43:59.894Z,46.59
2023-09-28T13:46:45.380Z,46.69
2023-09-28T13:49:30.849Z,46.87
2023-09-28T13:52:16.408Z,46.86
2023-09-28T13:55:02.058Z,46.77
2023-09-28T13:57:47.534Z,46.97
2023-09-28T14:00:33.037Z,46.74
2023-09-28T14:03:18.542Z,46.50
2023-09-28T14:06:04.204Z,46.62
2023-09-28T14:08:49.799Z,46.75
2023-09-28T14:11:35.581Z,45.80
2023-09-28T14:14:21.105Z,45.17
2023-09-28T14:17:11.227Z,44.85
2023-09-28T14:19:58.570Z,44.36
2023-09-28T14:22:44.249Z,43.92
2023-09-28T14:25:32.866Z,43.18
2023-09-28T14:28:18.462Z,42.93
2023-09-28T14:31:04.232Z,42.47
2023-09-28T14:33:52.188Z,42.28
2023-09-28T14:36:37.839Z,42.37
2023-09-28T14:39:23.243Z,42.07
2023-09-28T14:42:08.452Z,41.90
2023-09-28T14:44:54.123Z,41.70
2023-09-28T14:47:40.019Z,41.58
2023-09-28T14:50:25.698Z,41.07
2023-09-28T14:53:13.134Z,40.95
2023-09-28T14:55:58.877Z,41.17
2023-09-28T14:58:44.757Z,40.63
2023-09-28T15:01:30.344Z,40.49
2023-09-28T15:04:18.390Z,40.66
2023-09-28T15:07:03.903Z,40.64
2023-09-28T15:09:49.464Z,40.90
2023-09-28T15:12:34.873Z,40.79
2023-09-28T15:15:20.706Z,40.94
2023-09-28T15:18:06.367Z,41.11
2023-09-28T15:20:52.094Z,41.17
2023-09-28T15:23:37.768Z,41.63
2023-09-28T15:26:23.398Z,41.29
2023-09-28T15:29:09.269Z,41.47
2023-09-28T15:31:55.162Z,41.79
2023-09-28T15:34:41.075Z,41.50
2023-09-28T15:37:26.494Z,41.45
2023-09-28T15:40:13.077Z,42.00
2023-09-28T15:42:58.461Z,41.99
2023-09-28T15:45:43.748Z,42.16
2023-09-28T15:48:29.366Z,41.89
2023-09-28T15:51:14.723Z,42.57
2023-09-28T15:54:00.206Z,42.36
2023-09-28T15:56:45.905Z,42.13
2023-09-28T15:59:31.327Z,42.30
2023-09-28T16:02:16.810Z,42.39
2023-09-28T16:05:02.340Z,42.17
2023-09-28T16:07:47.835Z,42.90
2023-09-28T16:10:32.865Z,42.60
2023-09-28T16:13:18.737Z,43.01
2023-09-28T16:16:04.127Z,43.53
2023-09-28T16:18:49.943Z,43.41
2023-09-28T16:21:35.598Z,43.46
2023-09-28T16:24:21.511Z,44.06
2023-09-28T16:27:06.882Z,44.12
2023-09-28T16:29:52.618Z,43.96
2023-09-28T16:32:38.132Z,44.01
2023-09-28T16:35:23.398Z,44.27
2023-09-28T16:38:10.852Z,44.03
2023-09-28T16:40:57.914Z,44.66
2023-09-28T16:43:43.337Z,44.94
2023-09-28T16:46:28.540Z,45.20
2023-09-28T16:49:13.866Z,45.90
2023-09-28T16:51:59.005Z,46.41
2023-09-28T16:54:44.338Z,46.51
2023-09-28T16:57:29.913Z,46.35
2023-09-28T17:00:15.510Z,47.28
2023-09-28T17:03:01.178Z,46.88
2023-09-28T17:05:46.741Z,46.75
2023-09-28T17:08:32.304Z,46.82
2023-09-28T17:11:17.912Z,46.98
2023-09-28T17:14:03.472Z,47.85
2023-09-28T17:16:48.538Z,48.61
2023-09-28T17:19:33.962Z,48.76
2023-09-28T17:22:18.980Z,48.92
2023-09-28T17:25:04.001Z,49.25
2023-09-28T17:27:49.428Z,49.27
2023-09-28T17:30:36.483Z,49.93
2023-09-28T17:33:22.056Z,50.04
2023-09-28T17:36:07.634Z,49.90
2023-09-28T17:38:53.156Z,49.91
2023-09-28T17:41:38.524Z,50.39
2023-09-28T17:44:23.921Z,50.70
2023-09-28T17:47:09.467Z,50.42
2023-09-28T17:49:54.927Z,50.31
2023-09-28T17:52:40.549Z,50.36
2023-09-28T17:55:25.889Z,50.50
2023-09-28T17:58:11.331Z,50.77
2023-09-28T18:00:56.852Z,51.04
2023-09-28T18:03:41.896Z,51.47
2023-09-28T18:06:27.285Z,51.56
2023-09-28T18:09:12.791Z,51.86
2023-09-28T18:11:58.347Z,52.60
2023-09-28T18:14:43.947Z,53.08
2023-09-28T18:17:29.415Z,52.53
2023-09-28T18:22:58.822Z,53.57
2023-09-28T18:25:44.439Z,52.83
2023-09-28T18:28:29.538Z,53.14
2023-09-28T18:31:15.117Z,52.94
2023-09-28T18:34:00.959Z,53.84
2023-09-28T18:36:46.164Z,53.86
2023-09-28T18:39:31.786Z,53.77
2023-09-28T18:42:16.776Z,53.93
2023-09-28T18:45:02.397Z,54.00
2023-09-28T18:47:48.278Z,53.92
2023-09-28T18:50:33.700Z,54.05
2023-09-28T18:53:19.265Z,53.98
2023-09-28T18:56:04.528Z,54.24
2023-09-28T18:58:50.121Z,53.97
2023-09-28T19:01:35.590Z,53.81
2023-09-28T19:04:21.076Z,53.96
2023-09-28T19:07:06.523Z,54.17
2023-09-28T19:09:51.485Z,54.83
2023-09-28T19:12:37.028Z,55.00
2023-09-28T19:15:22.592Z,55.26
2023-09-28T19:18:08.080Z,55.35
2023-09-28T19:20:53.651Z,55.40
2023-09-28T19:23:39.059Z,56.31
2023-09-28T19:26:24.578Z,56.06
2023-09-28T19:29:11.653Z,56.74
2023-09-28T19:31:57.269Z,56.18
2023-09-28T19:34:42.750Z,56.29
2023-09-28T19:37:28.122Z,56.22
2023-09-28T19:40:13.244Z,56.04
2023-09-28T19:42:58.797Z,56.33
2023-09-28T19:45:44.311Z,56.25
2023-09-28T19:48:29.896Z,56.30
2023-09-28T19:51:15.216Z,56.24
2023-09-28T19:54:00.747Z,56.13
2023-09-28T19:56:46.221Z,55.87
2023-09-28T19:59:31.839Z,56.17
2023-09-28T20:02:17.206Z,56.08
2023-09-28T20:05:02.690Z,56.10
2023-09-28T20:07:48.185Z,56.23
2023-09-28T20:10:34.688Z,56.14
2023-09-28T20:13:20.191Z,56.42
2023-09-28T20:16:05.771Z,56.71
2023-09-28T20:18:51.111Z,56.62
2023-09-28T20:21:36.322Z,56.60
2023-09-28T20:24:21.714Z,56.67
2023-09-28T20:27:06.894Z,56.37
2023-09-28T20:29:51.768Z,56.89
2023-09-28T20:32:37.225Z,57.23
2023-09-28T20:35:22.808Z,56.50
2023-09-28T20:38:08.155Z,56.78
2023-09-28T20:40:53.745Z,56.78
2023-09-28T20:43:39.176Z,56.68
2023-09-28T20:46:24.712Z,56.73
2023-09-28T20:49:10.101Z,56.53
2023-09-28T20:51:55.064Z,56.84
2023-09-28T20:54:40.270Z,56.35
2023-09-28T20:57:25.703Z,56.53
2023-09-28T21:00:11.444Z,56.44
2023-09-28T21:02:57.101Z,56.42
2023-09-28T21:05:42.726Z,56.49
2023-09-28T21:08:28.451Z,56.64
2023-09-28T21:11:13.935Z,56.69
2023-09-28T21:13:59.632Z,57.05
2023-09-28T21:16:44.924Z,56.92
2023-09-28T21:19:29.868Z,56.97
2023-09-28T21:22:15.004Z,57.30
2023-09-28T21:24:59.954Z,57.73
2023-09-28T21:27:45.620Z,57.22
2023-09-28T21:30:31.030Z,57.38
2023-09-28T21:33:16.181Z,57.33
2023-09-28T21:36:01.699Z,56.89
2023-09-28T21:38:46.999Z,56.70
2023-09-28T21:41:32.833Z,56.48
2023-09-28T21:44:18.302Z,57.07
2023-09-28T21:47:03.692Z,56.68
2023-09-28T21:49:48.616Z,56.75
2023-09-28T21:52:34.024Z,56.38
2023-09-28T21:55:19.653Z,56.65
2023-09-28T21:58:05.245Z,56.68
2023-09-28T22:00:50.727Z,56.64
2023-09-28T22:03:36.355Z,57.04
2023-09-28T22:06:21.732Z,56.96
2023-09-28T22:09:06.727Z,56.63
2023-09-28T22:11:51.755Z,56.62
2023-09-28T22:14:36.885Z,57.01
2023-09-28T22:17:22.356Z,56.97
2023-09-28T22:20:08.034Z,56.72
2023-09-28T22:22:53.322Z,56.75
2023-09-28T22:25:38.354Z,56.70
2023-09-28T22:28:23.311Z,55.87
2023-09-28T22:31:08.321Z,56.54
2023-09-28T22:33:53.981Z,56.57
2023-09-28T22:36:39.410Z,56.88
2023-09-28T22:39:24.709Z,57.82
2023-09-28T22:42:10.090Z,56.89
2023-09-28T22:44:55.618Z,56.38
2023-09-28T22:47:40.902Z,56.40
2023-09-28T22:50:26.257Z,57.19
2023-09-28T22:53:11.675Z,56.38
2023-09-28T22:55:56.597Z,56.69
2023-09-28T22:58:41.429Z,57.10
2023-09-28T23:01:26.482Z,56.87
2023-09-28T23:04:11.959Z,57.04
2023-09-28T23:06:57.437Z,56.90
2023-09-28T23:09:42.262Z,56.64
2023-09-28T23:12:27.152Z,56.77
2023-09-28T23:15:12.550Z,56.47
2023-09-28T23:17:58.089Z,57.08
2023-09-28T23:20:43.527Z,56.59
2023-09-28T23:23:29.101Z,56.91
2023-09-28T23:26:14.701Z,56.56
2023-09-28T23:29:00.158Z,56.78
2023-09-28T23:31:45.155Z,57.03
2023-09-28T23:34:30.648Z,56.34
2023-09-28T23:37:16.166Z,56.14
2023-09-28T23:40:01.226Z,56.25
2023-09-28T23:42:46.370Z,57.09
2023-09-28T23:45:31.825Z,57.65
2023-09-28T23:48:17.484Z,57.40
2023-09-28T23:51:02.936Z,57.08
2023-09-28T23:53:48.430Z,56.51
2023-09-28T23:56:34.025Z,56.31
2023-09-28T23:59:19.470Z,55.79
